sensor_id;sensor_type;location;lat;lon;timestamp;pressure;altitude;pressure_sealevel;temperature;humidity
45939;BME280;31650;48.818;9.116;2023-03-03T00:06:01;98215.31;;;-1.70;100.00
45939;BME280;31650;48.818;9.116;2023-03-03T00:21:02;98213.38;;;-1.68;100.00
45939;BME280;31650;48.818;9.116;2023-03-03T00:36:47;98205.66;;;-1.52;100.00
45939;BME280;31650;48.818;9.116;2023-03-03T00:51:31;98212.03;;;-1.93;100.00
45939;BME280;31650;48.818;9.116;2023-03-03T01:06:33;98202.97;;;-2.21;100.00
45939;BME280;31650;48.818;9.116;2023-03-03T01:21:33;98202.53;;;-2.57;100.00
45939;BME280;31650;48.818;9.116;2023-03-03T01:36:33;98201.03;;;-2.71;100.00
45939;BME280;31650;48.818;9.116;2023-03-03T01:51:35;98200.03;;;-2.70;100.00
45939;BME280;31650;48.818;9.116;2023-03-03T02:06:39;98180.06;;;-2.85;100.00
45939;BME280;31650;48.818;9.116;2023-03-03T02:21:40;98164.84;;;-2.52;100.00
45939;BME280;31650;48.818;9.116;2023-03-03T02:36:40;98174.16;;;-2.68;100.00
45939;BME280;31650;48.818;9.116;2023-03-03T02:51:41;98184.34;;;-2.73;100.00
45939;BME280;31650;48.818;9.116;2023-03-03T03:06:41;98178.06;;;-2.41;100.00
45939;BME280;31650;48.818;9.116;2023-03-03T03:21:42;98181.50;;;-1.69;100.00
45939;BME280;31650;48.818;9.116;2023-03-03T03:36:42;98185.34;;;-1.23;100.00
45939;BME280;31650;48.818;9.116;2023-03-03T03:51:42;98184.38;;;-1.13;100.00
45939;BME280;31650;48.818;9.116;2023-03-03T04:06:43;98176.47;;;-0.95;100.00
45939;BME280;31650;48.818;9.116;2023-03-03T04:21:43;98178.69;;;-0.71;100.00
45939;BME280;31650;48.818;9.116;2023-03-03T04:36:43;98189.25;;;-0.32;100.00
45939;BME280;31650;48.818;9.116;2023-03-03T04:51:43;98205.91;;;-0.10;100.00
45939;BME280;31650;48.818;9.116;2023-03-03T05:06:43;98206.94;;;0.07;100.00
45939;BME280;31650;48.818;9.116;2023-03-03T05:21:44;98193.66;;;0.25;100.00
45939;BME280;31650;48.818;9.116;2023-03-03T05:36:44;98210.78;;;0.50;100.00
45939;BME280;31650;48.818;9.116;2023-03-03T05:51:44;98226.31;;;0.46;100.00
45939;BME280;31650;48.818;9.116;2023-03-03T06:06:44;98238.09;;;0.53;100.00
45939;BME280;31650;48.818;9.116;2023-03-03T06:21:45;98245.16;;;0.72;100.00
45939;BME280;31650;48.818;9.116;2023-03-03T06:36:45;98257.66;;;0.99;100.00
45939;BME280;31650;48.818;9.116;2023-03-03T06:51:45;98257.09;;;1.14;100.00
45939;BME280;31650;48.818;9.116;2023-03-03T07:06:45;98264.16;;;1.33;100.00
45939;BME280;31650;48.818;9.116;2023-03-03T07:21:47;98283.88;;;1.32;100.00
45939;BME280;31650;48.818;9.116;2023-03-03T07:36:48;98280.44;;;1.83;100.00
45939;BME280;31650;48.818;9.116;2023-03-03T07:51:52;98283.28;;;2.42;96.18
45939;BME280;31650;48.818;9.116;2023-03-03T08:06:56;98302.88;;;2.43;89.32
45939;BME280;31650;48.818;9.116;2023-03-03T08:22:11;98301.22;;;2.84;86.16
45939;BME280;31650;48.818;9.116;2023-03-03T08:37:13;98292.78;;;3.71;81.72
45939;BME280;31650;48.818;9.116;2023-03-03T08:52:14;98289.41;;;4.57;73.24
45939;BME280;31650;48.818;9.116;2023-03-03T09:07:14;98304.25;;;6.08;68.79
45939;BME280;31650;48.818;9.116;2023-03-03T09:22:19;98322.44;;;7.03;61.49
45939;BME280;31650;48.818;9.116;2023-03-03T09:52:30;98312.22;;;6.54;64.99
45939;BME280;31650;48.818;9.116;2023-03-03T10:53:28;98317.22;;;8.52;58.79
45939;BME280;31650;48.818;9.116;2023-03-03T11:08:35;98321.41;;;8.05;58.32
45939;BME280;31650;48.818;9.116;2023-03-03T11:38:57;98325.16;;;8.04;59.51
45939;BME280;31650;48.818;9.116;2023-03-03T11:53:59;98311.50;;;8.75;58.26
45939;BME280;31650;48.818;9.116;2023-03-03T12:09:12;98289.47;;;9.59;54.87
45939;BME280;31650;48.818;9.116;2023-03-03T12:24:21;98290.03;;;8.73;56.63
45939;BME280;31650;48.818;9.116;2023-03-03T12:54:40;98263.41;;;10.18;53.83
45939;BME280;31650;48.818;9.116;2023-03-03T13:25:01;98257.13;;;10.31;50.56
45939;BME280;31650;48.818;9.116;2023-03-03T14:10:20;98239.53;;;8.31;56.79
45939;BME280;31650;48.818;9.116;2023-03-03T14:25:24;98224.91;;;8.25;58.78
45939;BME280;31650;48.818;9.116;2023-03-03T14:40:31;98218.72;;;8.38;57.43
45939;BME280;31650;48.818;9.116;2023-03-03T14:55:33;98224.41;;;8.43;57.61
45939;BME280;31650;48.818;9.116;2023-03-03T15:10:35;98217.00;;;8.59;57.37
45939;BME280;31650;48.818;9.116;2023-03-03T15:40:49;98202.66;;;8.37;57.69
45939;BME280;31650;48.818;9.116;2023-03-03T15:55:58;98201.91;;;9.04;55.57
45939;BME280;31650;48.818;9.116;2023-03-03T16:11:15;98213.16;;;8.46;57.17
45939;BME280;31650;48.818;9.116;2023-03-03T16:41:22;98241.50;;;6.80;62.53
45939;BME280;31650;48.818;9.116;2023-03-03T17:26:38;98296.59;;;4.17;76.21
45939;BME280;31650;48.818;9.116;2023-03-03T17:41:57;98328.00;;;3.27;86.12
45939;BME280;31650;48.818;9.116;2023-03-03T17:57:07;98337.03;;;2.59;98.15
45939;BME280;31650;48.818;9.116;2023-03-03T18:27:32;98377.41;;;2.49;100.00
45939;BME280;31650;48.818;9.116;2023-03-03T18:57:34;98411.28;;;2.24;100.00
45939;BME280;31650;48.818;9.116;2023-03-03T19:43:55;98416.84;;;2.30;100.00
45939;BME280;31650;48.818;9.116;2023-03-03T19:58:34;98434.31;;;1.90;100.00
45939;BME280;31650;48.818;9.116;2023-03-03T20:13:45;98445.47;;;1.22;100.00
45939;BME280;31650;48.818;9.116;2023-03-03T21:44:28;98503.75;;;-0.34;100.00
45939;BME280;31650;48.818;9.116;2023-03-03T21:59:28;98501.78;;;-0.41;100.00
45939;BME280;31650;48.818;9.116;2023-03-03T22:14:28;98509.25;;;-0.86;100.00
45939;BME280;31650;48.818;9.116;2023-03-03T22:29:29;98503.66;;;-1.13;100.00
45939;BME280;31650;48.818;9.116;2023-03-03T22:44:29;98494.44;;;-1.30;100.00
45939;BME280;31650;48.818;9.116;2023-03-03T22:59:29;98507.22;;;-1.55;100.00
45939;BME280;31650;48.818;9.116;2023-03-03T23:14:31;98522.31;;;-1.65;100.00
45939;BME280;31650;48.818;9.116;2023-03-03T23:29:31;98521.66;;;-1.78;100.00
45939;BME280;31650;48.818;9.116;2023-03-03T23:44:31;98532.00;;;-1.85;100.00
45939;BME280;31650;48.818;9.116;2023-03-03T23:59:32;98529.25;;;-1.74;100.00
